Strona główna
METAR-TAF:

METAR-TAF

Lotnisko :

Mount Carmel Municipal Airport

Mount Carmel, Illinois, Stany Zjednoczone

Szerokość geograficzna: 38-36-23N, Długość geograficzna: 087-43-36W, wysokość: 131 m

Aktualna obserwacja pogody

Raport powstał 27 minut temu, godzina 01:55 UTC
Cisza
Temperatura 27°C
Wilgotność 89%
Ciśnienie 1013 hPa
Widzialność: 16.1 km
bezchmurnie

METAR: KAJG 210155Z AUTO 00000KT 10SM CLR 27/25 A2991 RMK AO2 T02730245

czas: 21:22 (02:22 UTC)


TAF: brakujący

Obserwacja i prognoza pogody dla ponad 4000 lotnisk (raport METAR i TAF).

Dostępne stacje oznaczono żółtymi i czerwonymi punktami na mapie.

Najedź kursorem aby zobaczyć nazwę stacji.

Kliknij aby zobaczyć obserwacje i prognozy pogody.

Aby zmienić mapę: kliknij na zielony przycisk z czarnym krzyżykiem, aby powiększyć; na zielony przycisk z myślnikiem, aby pomniejszyć; na zielone strzałki, aby przejść do map sąsiednich.


METAR-TAF: